Time;durP1;ratioP1;P1;durP2;ratioP2;P2;SDS_P1;SDS_P2;PMS_P1;PMS_P2;Temp;Humidity;BMP_temperature;BMP_pressure;BME280_temperature;BME280_humidity;BME280_pressure;Samples;Min_cycle;Max_cycle;Signal;HPM_P1;HPM_P2
2021/11/08 00:12:29;;;;;;;5.70;2.63;;;23.10;64.80;;;;;;31391732;28;20044;-46
2021/11/08 00:27:31;;;;;;;1.55;1.45;;;23.00;64.60;;;;;;31389913;28;20085;-46
2021/11/08 00:42:33;;;;;;;1.40;1.30;;;23.00;64.60;;;;;;31388067;28;20133;-45
2021/11/08 00:57:37;;;;;;;0.70;0.70;;;23.00;64.70;;;;;;31386825;28;20091;-40
2021/11/08 01:12:39;;;;;;;1.13;0.55;;;22.90;64.70;;;;;;31389599;28;20150;-38
2021/11/08 01:27:48;;;;;;;5.03;0.40;;;22.90;64.90;;;;;;31384737;28;20061;-41
2021/11/08 01:42:50;;;;;;;0.20;0.20;;;22.90;64.80;;;;;;31380895;28;20133;-41
2021/11/08 01:57:53;;;;;;;3.70;0.50;;;22.90;64.90;;;;;;31378181;28;20100;-41
2021/11/08 02:12:57;;;;;;;0.20;0.20;;;23.40;65.60;;;;;;31377752;28;20093;-41
2021/11/08 02:28:00;;;;;;;0.20;0.17;;;23.50;64.60;;;;;;31379680;28;20049;-42
2021/11/08 02:43:04;;;;;;;0.10;0.10;;;23.40;64.60;;;;;;31380692;28;20164;-42
2021/11/08 02:58:06;;;;;;;0.10;0.10;;;23.30;64.80;;;;;;31373807;28;20052;-44
2021/11/08 03:13:18;;;;;;;0.10;0.10;;;23.30;64.70;;;;;;31371521;28;20068;-40
2021/11/08 03:28:20;;;;;;;0.10;0.10;;;23.20;64.50;;;;;;31371233;28;20037;-41
2021/11/08 03:43:22;;;;;;;0.20;0.20;;;23.20;64.50;;;;;;31370227;28;20057;-41
2021/11/08 03:58:24;;;;;;;0.20;0.20;;;23.00;64.70;;;;;;31401908;28;20045;-41
2021/11/08 04:13:31;;;;;;;0.35;0.10;;;23.00;64.80;;;;;;31368521;28;20065;-44
2021/11/08 04:28:34;;;;;;;0.10;0.10;;;23.00;64.80;;;;;;31382532;28;20045;-45
2021/11/08 05:44:19;;;;;;;1.30;1.00;;;22.90;65.40;;;;;;31382776;28;20070;-40
2021/11/08 07:00:50;;;;;;;32.00;26.60;;;22.80;61.10;;;;;;31493685;28;20045;-41
2021/11/08 07:15:54;;;;;;;22.92;19.83;;;22.60;59.40;;;;;;31497010;28;20045;-38
2021/11/08 07:30:56;;;;;;;22.75;20.23;;;22.60;57.10;;;;;;31477343;28;20048;-37
2021/11/08 07:45:58;;;;;;;22.70;16.10;;;22.90;56.60;;;;;;31459535;28;20075;-37
2021/11/08 08:01:00;;;;;;;17.45;13.98;;;23.10;55.90;;;;;;31400596;28;20075;-36
2021/11/08 08:16:05;;;;;;;13.50;8.65;;;23.10;56.40;;;;;;31391008;28;20065;-38
2021/11/08 08:31:07;;;;;;;10.23;7.22;;;22.90;55.70;;;;;;31389293;28;20049;-39
2021/11/08 08:46:09;;;;;;;10.45;7.40;;;22.80;55.30;;;;;;31328802;28;20053;-39
2021/11/08 09:01:11;;;;;;;12.30;9.82;;;22.70;55.40;;;;;;31307258;28;20064;-39
2021/11/08 09:16:14;;;;;;;8.63;6.10;;;22.90;55.60;;;;;;31472946;28;20041;-40
2021/11/08 09:31:17;;;;;;;6.63;5.63;;;23.40;55.40;;;;;;31465009;28;20038;-37
2021/11/08 09:46:20;;;;;;;50.88;38.10;;;23.50;55.90;;;;;;31380425;28;20068;-38
2021/11/08 10:01:22;;;;;;;13.13;10.63;;;23.30;56.00;;;;;;31379535;28;20534;-40
2021/11/08 10:16:30;;;;;;;46.13;37.92;;;23.10;56.40;;;;;;31415431;28;20045;-39
2021/11/08 10:31:37;;;;;;;29.83;24.25;;;22.60;57.10;;;;;;31349346;28;20052;-37
2021/11/08 10:46:42;;;;;;;22.83;16.67;;;22.60;57.50;;;;;;31373042;28;20083;-37
2021/11/08 11:01:49;;;;;;;102.28;79.07;;;22.50;57.00;;;;;;31371565;28;20045;-38
2021/11/08 11:16:51;;;;;;;75.05;57.97;;;22.00;57.00;;;;;;31025400;28;10000565;-36
2021/11/08 11:31:54;;;;;;;62.95;48.38;;;22.20;58.50;;;;;;31372368;28;20049;-41
2021/11/08 11:46:57;;;;;;;57.80;42.40;;;22.30;57.90;;;;;;31392410;28;20073;-36
2021/11/08 12:01:59;;;;;;;44.38;36.92;;;22.30;58.50;;;;;;31384343;28;20125;-39
2021/11/08 12:17:13;;;;;;;44.72;34.80;;;22.40;58.60;;;;;;31383686;28;20042;-41
2021/11/08 12:32:15;;;;;;;118.95;91.72;;;22.00;59.60;;;;;;31391887;28;20133;-44
2021/11/08 12:47:29;;;;;;;71.95;51.03;;;21.40;58.60;;;;;;31378251;28;20084;-48
2021/11/08 13:02:50;;;;;;;48.03;36.03;;;22.40;57.20;;;;;;31376688;28;20061;-46
2021/11/08 13:18:00;;;;;;;48.30;31.73;;;22.90;55.90;;;;;;31375656;28;20101;-37
2021/11/08 13:33:05;;;;;;;51.60;31.40;;;22.70;54.50;;;;;;31382994;28;20057;-36
2021/11/08 13:48:25;;;;;;;52.80;29.40;;;22.40;52.00;;;;;;31383691;28;20054;-43
2021/11/08 14:03:34;;;;;;;;;;;22.30;54.10;;;;;;31382201;28;20047;-38
2021/11/08 14:18:37;;;;;;;44.63;28.92;;;22.20;55.20;;;;;;31374393;28;19923;-36
2021/11/08 14:33:39;;;;;;;44.05;27.42;;;22.30;54.60;;;;;;31367262;28;20049;-36
2021/11/08 14:48:41;;;;;;;40.33;27.05;;;22.20;54.10;;;;;;31377147;28;20060;-41
2021/11/08 15:04:11;;;;;;;40.58;24.40;;;22.40;55.40;;;;;;31376466;28;20052;-40
2021/11/08 15:19:15;;;;;;;35.38;23.58;;;22.50;56.20;;;;;;31376565;28;20110;-40
2021/11/08 15:34:22;;;;;;;33.60;20.92;;;22.40;56.70;;;;;;31373671;28;20044;-42
2021/11/08 15:49:24;;;;;;;25.05;16.95;;;22.80;56.20;;;;;;31375285;28;20080;-40
2021/11/08 16:04:26;;;;;;;23.70;15.15;;;23.00;56.20;;;;;;31375532;28;20056;-40
2021/11/08 16:19:28;;;;;;;22.45;16.73;;;23.10;56.40;;;;;;31381768;28;20073;-42
2021/11/08 16:34:31;;;;;;;18.70;14.20;;;23.00;56.60;;;;;;31395354;28;20041;-42
2021/11/08 16:49:33;;;;;;;30.23;13.80;;;23.00;56.90;;;;;;31393754;28;20061;-41
2021/11/08 17:04:35;;;;;;;23.30;12.98;;;23.00;57.50;;;;;;31392725;28;20045;-39
2021/11/08 17:19:38;;;;;;;21.52;13.07;;;23.00;57.70;;;;;;31029732;28;10000499;-46
2021/11/08 17:34:40;;;;;;;20.92;12.93;;;23.00;58.70;;;;;;31372075;28;20291;-47
2021/11/08 17:49:43;;;;;;;25.75;13.55;;;23.00;59.60;;;;;;31370094;28;20073;-45
2021/11/08 18:04:45;;;;;;;19.33;12.50;;;22.90;59.90;;;;;;31368667;28;20068;-45
2021/11/08 18:19:52;;;;;;;19.20;11.95;;;22.70;60.30;;;;;;31365425;28;20041;-47
2021/11/08 18:34:56;;;;;;;15.90;10.27;;;22.70;61.10;;;;;;31366778;28;20364;-41
2021/11/08 18:49:58;;;;;;;23.48;11.45;;;22.60;61.20;;;;;;31376720;28;20041;-39
2021/11/08 19:05:18;;;;;;;14.68;9.60;;;22.70;61.70;;;;;;31379890;28;20072;-39
2021/11/08 19:20:21;;;;;;;16.60;9.83;;;23.00;60.90;;;;;;31410732;28;20072;-43
2021/11/08 19:50:31;;;;;;;17.92;9.88;;;23.00;62.30;;;;;;31494415;28;20129;-42
2021/11/08 20:05:34;;;;;;;16.05;8.70;;;22.90;62.40;;;;;;31516834;28;20049;-44
2021/11/08 20:20:36;;;;;;;17.90;9.43;;;22.80;62.40;;;;;;31515061;28;20104;-42
2021/11/08 20:36:08;;;;;;;17.33;9.45;;;22.80;62.60;;;;;;31513804;28;20048;-45
2021/11/08 20:52:02;;;;;;;13.25;8.75;;;22.70;62.90;;;;;;31509912;28;20060;-41
2021/11/08 21:22:14;;;;;;;;;;;23.20;62.40;;;;;;31453010;28;20107;-42
2021/11/08 21:52:37;;;;;;;9.35;5.80;;;23.30;62.00;;;;;;31504603;28;20037;-41
2021/11/08 22:07:39;;;;;;;14.27;6.57;;;23.30;61.60;;;;;;31502308;28;20074;-43
2021/11/08 22:22:42;;;;;;;7.72;5.50;;;23.20;62.00;;;;;;31448282;28;20060;-44
2021/11/08 22:37:45;;;;;;;8.20;5.63;;;23.20;62.50;;;;;;31374590;28;20053;-44
2021/11/08 22:52:47;;;;;;;7.78;5.50;;;23.10;62.80;;;;;;31373213;28;20053;-44
2021/11/08 23:07:52;;;;;;;10.68;5.97;;;23.00;63.00;;;;;;31372423;28;20045;-42
2021/11/08 23:22:55;;;;;;;9.93;6.57;;;23.00;63.00;;;;;;31371260;28;20057;-41
2021/11/08 23:37:59;;;;;;;6.70;5.40;;;23.00;63.10;;;;;;31393296;28;20057;-42
2021/11/08 23:53:01;;;;;;;6.32;5.07;;;22.90;63.10;;;;;;31394801;28;20049;-41
